Time;durP1;ratioP1;P1;durP2;ratioP2;P2;SDS_P1;SDS_P2;PMS_P1;PMS_P2;Temp;Humidity;BMP_temperature;BMP_pressure;BME280_temperature;BME280_humidity;BME280_pressure;Samples;Min_cycle;Max_cycle;Signal;HPM_P1;HPM_P2
2021/03/20 00:01:07;;;;;;;7.47;5.33;;;-0.70;99.90;;;;;;5013152;28;20454;-68
2021/03/20 00:03:33;;;;;;;13.60;6.80;;;-0.60;99.90;;;;;;5015272;28;20981;-67
2021/03/20 00:05:59;;;;;;;10.80;6.50;;;-0.70;99.90;;;;;;5014902;28;20407;-68
2021/03/20 00:08:25;;;;;;;8.97;4.97;;;-0.70;99.90;;;;;;5014753;28;20476;-67
2021/03/20 00:10:53;;;;;;;9.70;6.43;;;-0.70;99.90;;;;;;5015661;28;20170;-67
2021/03/20 00:13:20;;;;;;;10.90;5.90;;;-0.70;99.90;;;;;;5014353;28;20443;-67
2021/03/20 00:15:46;;;;;;;9.10;6.30;;;-0.70;99.90;;;;;;5030800;28;20501;-67
2021/03/20 00:18:11;;;;;;;9.40;6.50;;;-0.70;99.90;;;;;;5013443;28;20522;-67
2021/03/20 00:20:40;;;;;;;6.67;4.50;;;-0.70;99.90;;;;;;5015386;28;20179;-67
2021/03/20 00:23:06;;;;;;;8.50;5.20;;;-0.60;99.90;;;;;;4998979;28;20270;-67
2021/03/20 00:25:33;;;;;;;11.17;6.90;;;-0.70;99.90;;;;;;5013807;28;20530;-68
2021/03/20 00:27:59;;;;;;;7.03;4.60;;;-0.70;99.90;;;;;;5014199;28;20998;-67
2021/03/20 00:30:26;;;;;;;9.40;5.47;;;-0.70;99.90;;;;;;5015794;28;20407;-66
2021/03/20 00:32:52;;;;;;;8.10;5.50;;;-0.80;99.90;;;;;;5000290;28;20529;-67
2021/03/20 00:35:20;;;;;;;9.43;5.23;;;-0.80;99.90;;;;;;4995786;28;20995;-68
2021/03/20 00:37:46;;;;;;;9.30;5.67;;;-0.90;99.90;;;;;;5008095;28;20255;-67
2021/03/20 00:40:18;;;;;;;8.67;5.50;;;-0.80;99.90;;;;;;5016090;28;20520;-67
2021/03/20 00:42:44;;;;;;;8.67;5.10;;;-0.80;99.90;;;;;;5013135;28;20632;-67
2021/03/20 00:45:13;;;;;;;7.30;4.80;;;-0.90;99.90;;;;;;5015994;28;20436;-67
2021/03/20 00:47:39;;;;;;;7.30;4.90;;;-0.90;99.90;;;;;;5015185;28;20547;-67
2021/03/20 00:50:07;;;;;;;8.70;5.47;;;-1.00;99.90;;;;;;5015428;28;20460;-67
2021/03/20 00:52:33;;;;;;;10.63;5.50;;;-1.00;99.90;;;;;;5014451;28;20450;-67
2021/03/20 00:54:59;;;;;;;8.40;4.83;;;-1.00;99.90;;;;;;5015560;28;20423;-67
2021/03/20 00:57:24;;;;;;;8.97;5.97;;;-1.10;99.90;;;;;;5013978;28;20236;-67
2021/03/20 00:59:50;;;;;;;8.37;5.00;;;-1.10;99.90;;;;;;5014350;28;20433;-67
2021/03/20 01:02:16;;;;;;;11.50;6.10;;;-1.10;99.90;;;;;;5014404;28;20204;-67
2021/03/20 01:04:42;;;;;;;6.93;4.63;;;-1.00;99.90;;;;;;5015429;28;20320;-67
2021/03/20 01:07:08;;;;;;;9.43;5.70;;;-1.10;99.90;;;;;;5014479;28;20276;-67
2021/03/20 01:09:34;;;;;;;8.80;6.50;;;-1.00;99.90;;;;;;5015094;28;20412;-67
2021/03/20 01:12:00;;;;;;;7.80;5.10;;;-1.10;99.90;;;;;;5009147;28;20195;-67
2021/03/20 01:14:26;;;;;;;6.70;4.10;;;-1.20;99.90;;;;;;4995477;28;20243;-67
2021/03/20 01:16:51;;;;;;;6.83;4.60;;;-1.20;99.90;;;;;;4999228;28;20425;-67
2021/03/20 01:19:17;;;;;;;9.07;5.57;;;-1.30;99.90;;;;;;5015038;28;20173;-66
2021/03/20 01:21:43;;;;;;;9.53;5.40;;;-1.30;99.90;;;;;;5013334;28;20585;-67
2021/03/20 01:24:10;;;;;;;8.97;5.03;;;-1.30;99.90;;;;;;5014527;28;20253;-67
2021/03/20 01:26:35;;;;;;;7.37;5.40;;;-1.40;99.90;;;;;;5012753;28;20459;-67
2021/03/20 01:29:01;;;;;;;8.50;4.53;;;-1.40;99.90;;;;;;5014697;28;20396;-67
2021/03/20 01:31:27;;;;;;;10.23;5.43;;;-1.40;99.90;;;;;;5013305;28;20218;-67
2021/03/20 01:33:52;;;;;;;7.50;5.17;;;-1.40;99.90;;;;;;5014188;28;20227;-66
2021/03/20 01:36:19;;;;;;;7.80;4.90;;;-1.50;99.90;;;;;;5014116;28;20530;-66
2021/03/20 01:38:44;;;;;;;10.60;5.60;;;-1.50;99.90;;;;;;5012891;28;20184;-66
2021/03/20 01:41:19;;;;;;;9.60;5.90;;;-1.50;99.90;;;;;;5013894;28;20517;-66
2021/03/20 01:43:46;;;;;;;7.17;5.50;;;-1.50;99.90;;;;;;4994891;28;20656;-66
2021/03/20 01:46:47;;;;;;;7.83;5.03;;;-1.60;99.90;;;;;;4996958;28;20471;-65
2021/03/20 01:49:21;;;;;;;8.40;5.77;;;-1.70;99.90;;;;;;4998641;28;20431;-66
2021/03/20 01:52:15;;;;;;;7.13;4.70;;;-1.60;99.90;;;;;;5000015;28;20454;-67
2021/03/20 01:54:40;;;;;;;10.23;5.93;;;-1.70;99.90;;;;;;5017543;28;20456;-66
2021/03/20 01:57:07;;;;;;;8.23;5.30;;;-1.60;99.90;;;;;;5013056;28;20430;-66
2021/03/20 01:59:33;;;;;;;8.60;5.67;;;-1.60;99.90;;;;;;5013032;28;20191;-66
2021/03/20 02:01:59;;;;;;;6.67;4.97;;;-1.60;99.90;;;;;;5000822;28;20461;-65
2021/03/20 02:04:25;;;;;;;8.30;5.40;;;-1.60;99.90;;;;;;5017413;28;20493;-66
2021/03/20 02:06:51;;;;;;;11.30;6.60;;;-1.70;99.90;;;;;;5012354;28;20490;-66
2021/03/20 02:09:17;;;;;;;7.70;5.40;;;-1.70;99.90;;;;;;4997561;28;20262;-66
2021/03/20 02:12:11;;;;;;;8.97;5.73;;;-1.70;99.90;;;;;;4998039;28;20196;-66
2021/03/20 02:14:57;;;;;;;8.30;5.60;;;-1.70;99.90;;;;;;4993995;28;20187;-67
2021/03/20 02:17:56;;;;;;;12.00;6.17;;;-1.50;99.90;;;;;;4998081;28;20453;-67
2021/03/20 02:21:00;;;;;;;10.10;5.80;;;-1.50;99.90;;;;;;4997956;28;20393;-66
2021/03/20 02:23:44;;;;;;;7.63;5.10;;;-1.40;99.90;;;;;;5005228;28;21012;-66
2021/03/20 02:26:47;;;;;;;10.87;5.80;;;-1.30;99.90;;;;;;4998990;28;20817;-66
2021/03/20 02:29:31;;;;;;;10.13;6.23;;;-1.20;99.90;;;;;;5013870;28;20441;-67
2021/03/20 02:32:25;;;;;;;8.70;5.90;;;-1.10;99.90;;;;;;5018033;28;20926;-65
2021/03/20 02:35:02;;;;;;;11.30;6.40;;;-1.00;99.90;;;;;;4998093;28;20451;-67
2021/03/20 02:37:35;;;;;;;11.93;7.10;;;-1.00;99.90;;;;;;4998830;28;20377;-66
2021/03/20 02:40:13;;;;;;;12.70;6.20;;;-1.10;99.90;;;;;;5018212;28;20386;-66
2021/03/20 02:42:58;;;;;;;10.20;6.30;;;-1.00;99.90;;;;;;5016890;28;20454;-67
2021/03/20 02:45:40;;;;;;;11.90;7.43;;;-1.00;99.90;;;;;;5018428;28;20387;-67
2021/03/20 02:48:36;;;;;;;7.80;5.80;;;-1.00;99.90;;;;;;5016921;28;20495;-67
2021/03/20 02:51:07;;;;;;;10.60;6.50;;;-1.00;99.90;;;;;;5016861;28;20394;-67
2021/03/20 02:53:43;;;;;;;10.40;6.10;;;-1.00;99.90;;;;;;5016946;28;20432;-66
2021/03/20 02:56:14;;;;;;;11.07;6.60;;;-1.00;99.90;;;;;;5017479;28;20405;-67
2021/03/20 02:58:47;;;;;;;14.93;6.23;;;-1.00;99.90;;;;;;5015465;28;20433;-67
2021/03/20 03:01:17;;;;;;;10.47;6.53;;;-1.00;99.90;;;;;;5017515;28;20749;-66
2021/03/20 03:03:46;;;;;;;10.97;7.67;;;-1.00;99.90;;;;;;5009379;28;20520;-66
2021/03/20 03:06:49;;;;;;;10.37;5.50;;;-0.90;99.90;;;;;;5017793;28;20413;-66
2021/03/20 03:09:35;;;;;;;9.60;6.43;;;-0.90;99.90;;;;;;4976208;28;20440;-66
2021/03/20 03:12:10;;;;;;;9.17;5.80;;;-0.90;99.90;;;;;;4998023;28;20412;-67
2021/03/20 03:14:40;;;;;;;8.93;5.50;;;-0.90;99.90;;;;;;5014843;28;20431;-66
2021/03/20 03:17:07;;;;;;;9.73;5.40;;;-1.00;99.90;;;;;;5016560;28;20474;-66
2021/03/20 03:19:43;;;;;;;7.90;5.30;;;-1.00;99.90;;;;;;5017117;28;20819;-66
2021/03/20 03:22:16;;;;;;;11.00;5.77;;;-0.90;99.90;;;;;;5017395;28;20440;-66
2021/03/20 03:24:43;;;;;;;9.73;5.33;;;-0.80;99.90;;;;;;5016095;28;20441;-65
2021/03/20 03:27:13;;;;;;;10.07;5.53;;;-0.90;99.90;;;;;;5016744;28;20443;-66
2021/03/20 03:29:39;;;;;;;8.00;5.47;;;-0.90;99.90;;;;;;5015165;28;20485;-67
2021/03/20 03:32:13;;;;;;;14.93;5.57;;;-0.90;99.90;;;;;;5015956;28;20416;-67
2021/03/20 03:34:50;;;;;;;8.13;4.50;;;-1.00;99.90;;;;;;4998909;28;20815;-66
2021/03/20 03:37:41;;;;;;;6.03;4.70;;;-1.00;99.90;;;;;;4996147;28;20408;-67
2021/03/20 03:40:12;;;;;;;7.07;4.17;;;-0.90;99.90;;;;;;4996011;28;20416;-67
2021/03/20 03:42:38;;;;;;;8.40;4.50;;;-1.00;99.90;;;;;;4995444;28;20438;-67
2021/03/20 03:45:08;;;;;;;7.90;4.30;;;-1.00;99.90;;;;;;5015141;28;20509;-67
2021/03/20 03:47:33;;;;;;;5.30;3.63;;;-1.00;99.90;;;;;;5015383;28;20186;-67
2021/03/20 03:50:03;;;;;;;7.40;5.17;;;-0.90;99.90;;;;;;5014530;28;20427;-67
2021/03/20 03:52:28;;;;;;;5.73;4.10;;;-0.90;99.90;;;;;;5015658;28;20677;-67
2021/03/20 03:54:54;;;;;;;6.80;3.97;;;-0.90;99.90;;;;;;5012917;28;20466;-67
2021/03/20 03:58:06;;;;;;;6.60;4.30;;;-1.00;99.90;;;;;;5014421;28;20666;-68
2021/03/20 04:00:41;;;;;;;6.73;4.60;;;-1.00;99.90;;;;;;5008153;28;20176;-67
2021/03/20 04:03:26;;;;;;;8.10;5.03;;;-1.10;99.90;;;;;;5011418;28;20454;-67
2021/03/20 04:05:57;;;;;;;6.27;4.40;;;-1.10;99.90;;;;;;4995975;28;20480;-67
2021/03/20 04:08:35;;;;;;;6.97;3.70;;;-1.10;99.90;;;;;;4994665;28;20459;-67
2021/03/20 04:11:22;;;;;;;4.80;4.00;;;-1.20;99.90;;;;;;4995884;28;20383;-67
2021/03/20 04:13:51;;;;;;;12.47;5.37;;;-1.20;99.90;;;;;;5003414;28;20430;-67
2021/03/20 04:16:20;;;;;;;9.63;4.70;;;-1.10;99.90;;;;;;5014976;28;20452;-67
2021/03/20 04:19:08;;;;;;;6.60;4.90;;;-1.10;99.90;;;;;;5012052;28;20920;-67
2021/03/20 04:21:39;;;;;;;6.87;4.77;;;-1.10;99.90;;;;;;5014999;28;20456;-67
2021/03/20 04:24:35;;;;;;;10.17;4.37;;;-1.10;99.90;;;;;;5013075;28;20438;-67
2021/03/20 04:27:09;;;;;;;10.53;5.23;;;-1.10;99.90;;;;;;5014908;28;20446;-67
2021/03/20 04:30:02;;;;;;;6.77;4.87;;;-1.20;99.90;;;;;;5014181;28;20786;-67
2021/03/20 04:32:44;;;;;;;6.13;4.30;;;-1.20;99.90;;;;;;5015289;28;20594;-67
2021/03/20 04:35:25;;;;;;;9.20;4.50;;;-1.20;99.90;;;;;;5000686;28;20437;-66
2021/03/20 04:37:52;;;;;;;7.93;4.90;;;-1.20;99.90;;;;;;4995228;28;20414;-66
2021/03/20 04:40:47;;;;;;;8.40;4.97;;;-1.10;99.90;;;;;;5009875;28;20491;-66
2021/03/20 04:43:20;;;;;;;6.20;5.10;;;-1.00;99.90;;;;;;5015362;28;20432;-66
2021/03/20 04:45:54;;;;;;;7.03;4.33;;;-0.90;99.90;;;;;;5008261;28;20437;-67
2021/03/20 04:48:30;;;;;;;6.93;4.70;;;-0.90;99.90;;;;;;4998718;28;20453;-67
2021/03/20 04:51:19;;;;;;;7.93;5.70;;;-0.90;99.90;;;;;;4996324;28;20462;-67
2021/03/20 04:53:48;;;;;;;5.90;4.00;;;-0.80;99.90;;;;;;4996653;28;20397;-67
2021/03/20 04:56:19;;;;;;;6.73;5.00;;;-0.80;99.90;;;;;;5015709;28;20398;-66
2021/03/20 04:58:54;;;;;;;10.30;6.10;;;-0.80;99.90;;;;;;5013924;28;20407;-67
2021/03/20 05:01:31;;;;;;;9.60;6.73;;;-0.70;99.90;;;;;;5013263;28;20441;-66
2021/03/20 05:04:24;;;;;;;7.73;5.30;;;-0.80;99.90;;;;;;5012245;28;20525;-66
2021/03/20 05:06:52;;;;;;;6.73;4.10;;;-0.90;99.90;;;;;;4992566;28;20426;-68
2021/03/20 05:09:26;;;;;;;6.50;4.93;;;-0.90;99.90;;;;;;4995095;28;20431;-66
2021/03/20 05:12:02;;;;;;;7.30;4.90;;;-0.90;99.90;;;;;;4994562;28;20427;-66
2021/03/20 05:14:38;;;;;;;7.63;4.87;;;-1.00;99.90;;;;;;5000568;28;20445;-66
2021/03/20 05:17:11;;;;;;;6.40;4.17;;;-1.00;99.90;;;;;;5014372;28;20547;-65
2021/03/20 05:19:37;;;;;;;6.23;4.60;;;-1.00;99.90;;;;;;5013401;28;20505;-65
2021/03/20 05:22:04;;;;;;;8.00;5.60;;;-1.00;99.90;;;;;;5012366;28;20578;-66
2021/03/20 05:24:38;;;;;;;8.53;5.90;;;-1.10;99.90;;;;;;5008096;28;20181;-67
2021/03/20 05:27:06;;;;;;;8.63;4.77;;;-1.10;99.90;;;;;;4995006;28;20776;-67
2021/03/20 05:29:32;;;;;;;8.83;5.30;;;-1.20;99.90;;;;;;5000307;28;20462;-67
2021/03/20 05:32:00;;;;;;;9.60;5.07;;;-1.20;99.90;;;;;;5014165;28;20437;-67
2021/03/20 05:34:38;;;;;;;8.60;4.97;;;-1.30;99.90;;;;;;5007910;28;20450;-67
2021/03/20 05:37:06;;;;;;;7.30;5.80;;;-1.40;99.90;;;;;;4994324;28;20436;-67
2021/03/20 05:39:32;;;;;;;7.23;5.00;;;-1.40;99.90;;;;;;5049369;23;20866;-69
2021/03/20 05:42:20;;;;;;;6.60;4.03;;;-1.40;99.90;;;;;;5033512;28;20400;-69
2021/03/20 05:44:59;;;;;;;6.83;4.97;;;-1.30;99.90;;;;;;5031862;28;20291;-69
2021/03/20 05:47:37;;;;;;;6.80;3.73;;;-1.20;99.90;;;;;;5032583;28;20552;-69
2021/03/20 05:50:31;;;;;;;6.20;4.83;;;-1.30;99.90;;;;;;5032188;28;20557;-69
2021/03/20 05:53:18;;;;;;;7.20;4.27;;;-1.30;99.90;;;;;;5032903;28;20469;-69
2021/03/20 05:56:11;;;;;;;6.33;4.37;;;-1.30;99.90;;;;;;5030850;28;20624;-70
2021/03/20 05:58:48;;;;;;;7.70;5.60;;;-1.30;99.90;;;;;;5032467;28;20429;-69
2021/03/20 06:01:24;;;;;;;6.87;4.40;;;-1.30;99.90;;;;;;5031558;28;20534;-69
2021/03/20 06:04:10;;;;;;;7.57;4.23;;;-1.30;99.90;;;;;;5032696;28;20924;-69
2021/03/20 06:07:00;;;;;;;6.27;4.67;;;-1.30;99.90;;;;;;5032566;28;20419;-68
2021/03/20 06:09:56;;;;;;;5.90;4.30;;;-1.30;99.90;;;;;;5031677;28;20797;-68
2021/03/20 06:12:30;;;;;;;5.07;3.60;;;-1.40;99.90;;;;;;5032459;28;20393;-68
2021/03/20 06:15:02;;;;;;;4.70;3.87;;;-1.50;99.90;;;;;;5031348;28;20424;-68
2021/03/20 06:18:02;;;;;;;3.60;2.90;;;-1.50;99.90;;;;;;5032419;28;20505;-68
2021/03/20 06:20:52;;;;;;;6.43;3.73;;;-1.60;99.90;;;;;;5031717;28;20424;-68
2021/03/20 06:23:41;;;;;;;7.13;4.00;;;-1.70;99.90;;;;;;5032439;28;20467;-68
2021/03/20 06:26:13;;;;;;;6.30;4.27;;;-1.80;99.90;;;;;;5030584;28;20426;-68
2021/03/20 06:28:53;;;;;;;5.13;3.57;;;-1.90;99.90;;;;;;5030999;28;20995;-68
2021/03/20 06:31:48;;;;;;;7.13;3.00;;;-1.90;99.90;;;;;;5031983;28;20458;-68
2021/03/20 06:34:22;;;;;;;6.40;3.70;;;-1.90;99.90;;;;;;5030724;28;20409;-67
2021/03/20 06:36:55;;;;;;;8.83;3.63;;;;;;;;;;5051606;28;20425;-68
2021/03/20 06:39:21;;;;;;;6.50;4.47;;;;;;;;;;5034719;28;20450;-67
2021/03/20 06:41:47;;;;;;;6.23;4.27;;;;;;;;;;5035567;28;20418;-68
2021/03/20 06:44:23;;;;;;;5.47;3.77;;;;;;;;;;5035718;28;20993;-68
2021/03/20 06:46:49;;;;;;;6.40;3.80;;;;;;;;;;5015819;28;20443;-68
2021/03/20 06:49:22;;;;;;;5.93;3.83;;;;;;;;;;5015851;28;20416;-68
2021/03/20 06:51:48;;;;;;;4.77;3.70;;;;;;;;;;5019802;28;20454;-69
2021/03/20 06:54:17;;;;;;;4.87;4.30;;;;;;;;;;5033727;28;20450;-69
2021/03/20 06:56:45;;;;;;;7.00;4.47;;;;;;;;;;5033075;28;20498;-69
2021/03/20 06:59:12;;;;;;;6.87;4.43;;;;;;;;;;5034879;28;20460;-68
2021/03/20 07:01:38;;;;;;;5.50;4.07;;;;;;;;;;5029749;28;20422;-68
2021/03/20 07:04:22;;;;;;;4.77;3.70;;;;;;;;;;5034553;28;20423;-69
2021/03/20 07:07:00;;;;;;;6.87;6.17;;;;;;;;;;5032526;28;20421;-68
2021/03/20 07:09:26;;;;;;;5.37;3.70;;;;;;;;;;5033721;28;20438;-66
2021/03/20 07:12:09;;;;;;;6.60;4.23;;;;;;;;;;5033711;28;20409;-68
2021/03/20 07:14:39;;;;;;;7.50;5.50;;;;;;;;;;5033774;28;20794;-67
2021/03/20 07:17:07;;;;;;;5.60;4.70;;;;;;;;;;5035305;28;20417;-71
2021/03/20 07:19:33;;;;;;;6.30;4.50;;;;;;;;;;5031648;28;20439;-69
2021/03/20 07:21:59;;;;;;;6.23;4.50;;;;;;;;;;5033152;28;20429;-67
2021/03/20 07:24:39;;;;;;;5.70;4.00;;;;;;;;;;5032988;28;20471;-70
2021/03/20 07:27:19;;;;;;;6.40;4.40;;;;;;;;;;5032672;28;20460;-72
2021/03/20 07:29:56;;;;;;;5.17;3.53;;;;;;;;;;5031885;28;20435;-69
2021/03/20 07:32:25;;;;;;;4.33;3.93;;;;;;;;;;5033924;28;20426;-67
2021/03/20 07:34:51;;;;;;;8.27;5.07;;;;;;;;;;5032775;28;20438;-66
2021/03/20 07:37:21;;;;;;;5.60;4.03;;;;;;;;;;5031516;28;20422;-66
2021/03/20 07:39:52;;;;;;;10.23;3.20;;;;;;;;;;5031282;28;20959;-66
2021/03/20 07:42:31;;;;;;;6.03;4.07;;;;;;;;;;5030327;28;20437;-71
2021/03/20 07:44:58;;;;;;;5.10;4.10;;;;;;;;;;5030488;28;20863;-73
2021/03/20 07:47:29;;;;;;;9.03;4.27;;;;;;;;;;5024880;28;20453;-69
2021/03/20 07:50:28;;;;;;;5.43;4.10;;;;;;;;;;5028758;28;20444;-68
2021/03/20 07:53:03;;;;;;;7.47;4.70;;;;;;;;;;4991662;28;20409;-68
2021/03/20 07:55:31;;;;;;;6.47;3.80;;;;;;;;;;5030531;28;20417;-70
2021/03/20 07:58:02;;;;;;;6.28;3.67;;;-1.80;99.90;;;;;;5033693;28;20467;-70
2021/03/20 08:00:43;;;;;;;5.45;3.60;;;-0.80;99.90;;;;;;5030200;28;20562;-70
2021/03/20 08:03:19;;;;;;;4.83;4.00;;;-1.00;99.90;;;;;;5034177;28;20225;-73
2021/03/20 08:05:45;;;;;;;5.60;3.70;;;-1.10;99.90;;;;;;5033283;28;20435;-72
2021/03/20 08:08:20;;;;;;;5.47;4.10;;;-1.30;99.90;;;;;;5030979;28;20460;-72
2021/03/20 08:10:58;;;;;;;4.73;4.03;;;-1.40;99.90;;;;;;5029817;28;21002;-73
2021/03/20 08:13:30;;;;;;;5.47;3.50;;;-1.50;99.90;;;;;;5032990;28;20500;-69
2021/03/20 08:15:57;;;;;;;5.97;4.30;;;-1.60;99.90;;;;;;5032912;28;20183;-70
2021/03/20 08:18:27;;;;;;;8.63;4.00;;;-1.70;99.90;;;;;;5033482;28;20533;-70
2021/03/20 08:20:59;;;;;;;4.97;4.30;;;-1.70;99.90;;;;;;5032617;28;20882;-69
2021/03/20 08:23:33;;;;;;;7.27;4.37;;;-1.60;99.90;;;;;;5030563;28;20513;-70
2021/03/20 08:26:12;;;;;;;3.90;3.07;;;-1.60;99.90;;;;;;5032875;28;20420;-70
2021/03/20 08:28:52;;;;;;;4.10;3.70;;;-1.60;99.90;;;;;;5033832;28;20455;-70
2021/03/20 08:31:29;;;;;;;4.63;3.30;;;-1.40;99.90;;;;;;5033101;28;20428;-71
2021/03/20 08:34:27;;;;;;;4.13;3.03;;;-1.10;99.90;;;;;;5032987;28;20512;-71
2021/03/20 08:37:21;;;;;;;5.90;3.47;;;-0.90;99.90;;;;;;5027167;28;20445;-71
2021/03/20 08:40:07;;;;;;;4.33;3.37;;;-0.50;99.90;;;;;;5033437;28;20435;-71
2021/03/20 08:42:57;;;;;;;5.70;4.20;;;-0.30;99.90;;;;;;5020450;28;20432;-70
2021/03/20 08:45:55;;;;;;;3.13;2.83;;;-0.30;99.90;;;;;;5033098;28;20433;-71
2021/03/20 08:48:31;;;;;;;5.33;3.17;;;-0.20;99.90;;;;;;4989919;28;20899;-70
2021/03/20 08:51:21;;;;;;;4.87;3.83;;;0.00;99.90;;;;;;5032631;28;20997;-70
2021/03/20 08:54:07;;;;;;;3.43;2.90;;;0.20;99.90;;;;;;5033502;28;20400;-70
2021/03/20 08:57:07;;;;;;;3.67;3.07;;;0.10;99.90;;;;;;5032767;28;20438;-71
2021/03/20 08:59:48;;;;;;;3.60;3.30;;;0.20;99.90;;;;;;5033390;28;20427;-70
2021/03/20 09:02:20;;;;;;;4.53;3.40;;;0.30;99.90;;;;;;5032443;28;20428;-70
2021/03/20 09:04:58;;;;;;;5.00;3.47;;;0.40;99.90;;;;;;5033520;28;20393;-70
2021/03/20 09:07:29;;;;;;;4.20;3.50;;;0.50;99.90;;;;;;5031974;28;20465;-70
2021/03/20 09:10:04;;;;;;;3.67;3.00;;;0.70;99.90;;;;;;5032323;28;20436;-70
2021/03/20 09:12:35;;;;;;;3.90;2.97;;;0.70;99.90;;;;;;5032719;28;20420;-71
2021/03/20 09:15:04;;;;;;;5.73;3.43;;;0.50;99.90;;;;;;5032163;28;20399;-70
2021/03/20 09:17:37;;;;;;;6.37;2.90;;;0.30;99.90;;;;;;5028326;28;20426;-73
2021/03/20 09:20:18;;;;;;;3.50;2.97;;;0.20;99.90;;;;;;5013924;28;20411;-72
2021/03/20 09:22:46;;;;;;;5.50;3.27;;;0.20;99.90;;;;;;5028690;28;20423;-69
2021/03/20 09:25:36;;;;;;;4.50;3.13;;;0.10;99.90;;;;;;5013413;28;20402;-69
2021/03/20 09:28:13;;;;;;;4.50;2.93;;;0.20;99.90;;;;;;5013429;28;20472;-70
2021/03/20 09:30:39;;;;;;;8.60;3.23;;;0.30;99.90;;;;;;5017203;28;20428;-71
2021/03/20 09:33:25;;;;;;;4.50;3.43;;;0.30;99.90;;;;;;5032030;28;20416;-72
2021/03/20 09:35:58;;;;;;;3.30;2.90;;;0.20;99.90;;;;;;5021302;28;20305;-72
2021/03/20 09:38:36;;;;;;;5.53;3.47;;;0.20;99.90;;;;;;5032682;28;20451;-71
2021/03/20 09:41:13;;;;;;;4.23;3.27;;;0.20;99.90;;;;;;5031935;28;20967;-71
2021/03/20 09:44:03;;;;;;;6.03;3.90;;;0.10;99.90;;;;;;5031591;28;20414;-71
2021/03/20 09:46:41;;;;;;;5.70;3.60;;;0.20;99.90;;;;;;5032308;28;20438;-71
2021/03/20 09:49:07;;;;;;;4.53;3.60;;;0.40;99.90;;;;;;5030334;28;20860;-71
2021/03/20 09:54:25;;;;;;;4.20;3.40;;;0.60;99.90;;;;;;5032706;28;20166;-71
2021/03/20 09:56:54;;;;;;;3.50;3.20;;;0.60;99.90;;;;;;5031769;28;20526;-71
2021/03/20 09:59:43;;;;;;;4.57;3.80;;;0.70;99.90;;;;;;5032726;28;20421;-72
2021/03/20 10:02:14;;;;;;;4.40;3.70;;;0.60;99.90;;;;;;5023644;28;20901;-71
2021/03/20 10:04:52;;;;;;;7.03;4.00;;;0.60;99.90;;;;;;5032826;28;20401;-71
2021/03/20 10:07:23;;;;;;;3.60;2.87;;;0.50;99.90;;;;;;5034307;28;21004;-71
2021/03/20 10:10:11;;;;;;;7.20;4.20;;;0.40;99.90;;;;;;5036587;28;20405;-70
2021/03/20 10:12:46;;;;;;;5.90;4.67;;;0.20;99.90;;;;;;5035619;28;20420;-71
2021/03/20 10:15:12;;;;;;;6.17;3.33;;;0.20;99.90;;;;;;5035394;28;20528;-70
2021/03/20 10:18:00;;;;;;;2.93;2.60;;;0.40;99.90;;;;;;5034099;28;20439;-71
2021/03/20 10:20:48;;;;;;;3.37;2.57;;;0.70;99.90;;;;;;5035380;28;20506;-70
2021/03/20 10:23:42;;;;;;;3.50;3.20;;;0.70;99.90;;;;;;5026262;28;20758;-70
2021/03/20 10:26:25;;;;;;;2.83;2.57;;;0.90;99.90;;;;;;5035009;28;20426;-71
2021/03/20 10:28:56;;;;;;;2.87;2.57;;;1.10;99.90;;;;;;5035990;28;20544;-71
2021/03/20 10:31:24;;;;;;;4.87;3.30;;;1.50;99.90;;;;;;5035496;28;20471;-71
2021/03/20 10:34:00;;;;;;;5.33;3.43;;;1.70;99.90;;;;;;5036305;28;20399;-71
2021/03/20 10:36:29;;;;;;;2.93;2.63;;;1.70;99.90;;;;;;5035582;28;20439;-71
2021/03/20 10:38:55;;;;;;;4.13;2.90;;;1.60;99.90;;;;;;5035819;28;20456;-71
2021/03/20 10:41:39;;;;;;;4.10;3.70;;;1.40;99.90;;;;;;5034880;28;20524;-71
2021/03/20 10:44:17;;;;;;;4.10;3.23;;;1.00;99.90;;;;;;5035894;28;20245;-71
2021/03/20 10:46:44;;;;;;;5.20;3.37;;;0.80;99.90;;;;;;5031279;28;20511;-71
2021/03/20 10:49:22;;;;;;;8.93;4.20;;;0.70;99.90;;;;;;5050963;28;20807;-71
2021/03/20 10:51:53;;;;;;;4.13;3.60;;;0.70;99.90;;;;;;5034642;28;20433;-71
2021/03/20 10:54:24;;;;;;;6.73;4.40;;;0.60;99.90;;;;;;5034449;28;20401;-71
2021/03/20 10:56:53;;;;;;;6.47;4.20;;;0.50;99.90;;;;;;5032822;28;20512;-70
2021/03/20 10:59:28;;;;;;;4.50;3.83;;;0.50;99.90;;;;;;5035526;28;20476;-71
2021/03/20 11:01:54;;;;;;;4.57;3.70;;;0.70;99.90;;;;;;5034236;28;20476;-71
2021/03/20 11:04:45;;;;;;;7.07;3.97;;;0.80;99.90;;;;;;5035504;28;20401;-71
2021/03/20 11:07:16;;;;;;;4.53;3.80;;;0.90;99.90;;;;;;5028442;28;20496;-71
2021/03/20 11:09:42;;;;;;;4.43;3.67;;;1.10;99.90;;;;;;5034279;28;20462;-70
2021/03/20 11:12:34;;;;;;;4.57;3.97;;;1.10;99.90;;;;;;5034306;28;20982;-71
2021/03/20 11:15:01;;;;;;;9.50;4.23;;;1.10;99.90;;;;;;5034631;28;20413;-70
2021/03/20 11:17:29;;;;;;;5.60;4.53;;;1.10;99.90;;;;;;5033965;28;20443;-71
2021/03/20 11:20:13;;;;;;;5.00;4.20;;;1.20;99.90;;;;;;5035248;28;20464;-71
2021/03/20 11:22:41;;;;;;;6.13;4.60;;;1.30;99.90;;;;;;5034190;28;20490;-71
2021/03/20 11:25:26;;;;;;;5.43;4.37;;;1.40;99.90;;;;;;5035159;28;20440;-71
2021/03/20 11:28:06;;;;;;;6.33;3.87;;;1.40;99.90;;;;;;5034302;28;20475;-70
2021/03/20 11:30:45;;;;;;;4.60;4.10;;;1.30;99.90;;;;;;5033296;28;20433;-70
2021/03/20 11:33:23;;;;;;;6.53;3.70;;;1.10;99.90;;;;;;5034623;28;20429;-70
2021/03/20 11:35:54;;;;;;;4.03;3.30;;;1.00;99.90;;;;;;5034456;28;20397;-69
2021/03/20 11:38:21;;;;;;;6.70;4.40;;;0.90;99.90;;;;;;5045138;23;20495;-68
2021/03/20 11:41:07;;;;;;;4.60;3.10;;;1.00;99.90;;;;;;5054779;28;20400;-68
2021/03/20 11:44:01;;;;;;;3.97;3.50;;;1.20;99.90;;;;;;5028352;28;20417;-68
2021/03/20 11:46:36;;;;;;;4.27;3.67;;;1.20;99.90;;;;;;5043562;28;20821;-68
2021/03/20 11:49:17;;;;;;;5.40;4.10;;;1.00;99.90;;;;;;5075502;28;20454;-69
2021/03/20 11:51:45;;;;;;;5.07;4.40;;;1.10;99.90;;;;;;5061889;28;20444;-69
2021/03/20 11:54:28;;;;;;;4.70;4.10;;;1.20;99.90;;;;;;5036027;28;20401;-69
2021/03/20 11:57:16;;;;;;;5.17;4.13;;;1.30;99.90;;;;;;5042146;28;20432;-70
2021/03/20 11:59:44;;;;;;;5.17;3.97;;;1.20;99.90;;;;;;5055063;28;20456;-70
2021/03/20 12:02:37;;;;;;;4.70;4.20;;;1.00;99.90;;;;;;5054314;28;20580;-70
2021/03/20 12:05:07;;;;;;;7.00;4.60;;;0.80;99.90;;;;;;5040287;28;20463;-70
2021/03/20 12:07:33;;;;;;;5.40;3.80;;;0.80;99.90;;;;;;5046537;28;20480;-69
2021/03/20 12:10:23;;;;;;;6.87;4.70;;;0.80;99.90;;;;;;5054645;28;20428;-70
2021/03/20 12:12:57;;;;;;;7.30;4.73;;;1.00;99.90;;;;;;5053560;28;20470;-70
2021/03/20 12:15:24;;;;;;;5.33;4.17;;;1.10;99.90;;;;;;5053249;28;20402;-70
2021/03/20 12:17:51;;;;;;;6.17;4.10;;;1.00;99.90;;;;;;5053074;28;20953;-70
2021/03/20 12:20:42;;;;;;;5.90;4.03;;;1.10;99.90;;;;;;5054171;28;20455;-70
2021/03/20 12:23:18;;;;;;;4.73;4.10;;;1.40;99.90;;;;;;5069223;28;20467;-70
2021/03/20 12:25:55;;;;;;;6.17;4.10;;;1.50;99.90;;;;;;5074123;28;20386;-70
2021/03/20 12:28:36;;;;;;;6.97;4.80;;;1.70;99.90;;;;;;5069523;28;20473;-70
2021/03/20 12:31:16;;;;;;;5.77;3.70;;;1.70;99.90;;;;;;5072765;28;20422;-70
2021/03/20 12:34:01;;;;;;;8.03;3.80;;;1.30;99.90;;;;;;5034228;28;20906;-70
2021/03/20 12:36:35;;;;;;;3.50;3.20;;;1.20;99.90;;;;;;5034296;28;20400;-70
2021/03/20 12:39:04;;;;;;;7.50;4.23;;;1.40;99.90;;;;;;5054148;28;20448;-69
2021/03/20 12:41:33;;;;;;;4.07;3.67;;;1.50;99.90;;;;;;5051716;28;20424;-69
2021/03/20 12:44:29;;;;;;;4.70;3.50;;;1.60;99.90;;;;;;5054115;28;20413;-70
2021/03/20 12:46:58;;;;;;;3.40;2.90;;;1.80;99.90;;;;;;5032373;28;20533;-68
2021/03/20 12:49:36;;;;;;;3.40;3.10;;;1.90;99.90;;;;;;5033925;28;20508;-70
2021/03/20 12:52:08;;;;;;;9.50;2.83;;;1.90;99.90;;;;;;5038791;28;20425;-69
2021/03/20 12:54:37;;;;;;;3.60;3.00;;;1.70;99.90;;;;;;5054398;28;20404;-69
2021/03/20 12:57:04;;;;;;;3.07;2.63;;;1.70;99.90;;;;;;5053283;28;20871;-70
2021/03/20 12:59:30;;;;;;;3.60;2.67;;;1.80;99.90;;;;;;5054328;28;20432;-70
2021/03/20 13:01:55;;;;;;;5.20;2.87;;;1.80;99.90;;;;;;5056794;28;20424;-70
2021/03/20 13:04:23;;;;;;;5.00;2.70;;;1.80;99.90;;;;;;5073616;28;20172;-69
2021/03/20 13:06:49;;;;;;;3.40;2.80;;;2.00;99.90;;;;;;5069282;28;20886;-69
2021/03/20 13:09:15;;;;;;;3.47;2.90;;;2.00;99.90;;;;;;5045629;28;20501;-69
2021/03/20 13:11:41;;;;;;;3.93;3.03;;;2.10;99.90;;;;;;5049856;28;20450;-69
2021/03/20 13:14:07;;;;;;;5.00;3.40;;;2.40;99.90;;;;;;5056128;28;20510;-68
2021/03/20 13:16:35;;;;;;;4.50;3.57;;;2.80;99.90;;;;;;5051825;28;20537;-69
2021/03/20 13:19:00;;;;;;;6.80;4.23;;;2.90;99.90;;;;;;5067234;28;20766;-69
2021/03/20 13:21:29;;;;;;;4.00;3.53;;;2.70;99.90;;;;;;5053224;28;20489;-68
2021/03/20 13:23:55;;;;;;;4.97;3.77;;;2.60;99.90;;;;;;5052484;28;20265;-68
2021/03/20 13:26:20;;;;;;;7.10;4.57;;;2.40;99.90;;;;;;5052441;28;20837;-68
2021/03/20 13:28:46;;;;;;;4.20;3.33;;;2.20;99.90;;;;;;5057520;28;20236;-70
2021/03/20 13:31:12;;;;;;;5.20;3.90;;;2.30;99.90;;;;;;5053692;28;20243;-71
2021/03/20 13:33:39;;;;;;;3.97;3.37;;;2.20;99.90;;;;;;5057389;28;20254;-70
2021/03/20 13:36:06;;;;;;;7.40;4.00;;;2.20;99.90;;;;;;5052844;28;20790;-70
2021/03/20 13:38:32;;;;;;;5.23;3.40;;;2.40;99.90;;;;;;5053869;28;20995;-70
2021/03/20 13:40:58;;;;;;;5.50;3.53;;;2.50;99.90;;;;;;5055588;28;20428;-71
2021/03/20 13:43:24;;;;;;;5.37;3.43;;;2.50;99.90;;;;;;5055769;28;20184;-73